sensor_id;sensor_type;location;lat;lon;timestamp;pressure;altitude;pressure_sealevel;temperature;humidity
43450;BME280;29041;42.266;23.110;2022-09-23T00:02:34;96053.56;;;9.95;62.35
43450;BME280;29041;42.266;23.110;2022-09-23T00:05:01;96047.81;;;9.39;63.54
43450;BME280;29041;42.266;23.110;2022-09-23T00:07:47;96044.19;;;9.43;63.38
43450;BME280;29041;42.266;23.110;2022-09-23T00:10:36;96048.13;;;9.37;64.59
43450;BME280;29041;42.266;23.110;2022-09-23T00:13:25;96035.66;;;9.64;62.33
43450;BME280;29041;42.266;23.110;2022-09-23T00:16:14;96038.72;;;9.48;62.77
43450;BME280;29041;42.266;23.110;2022-09-23T00:19:02;96026.50;;;8.65;65.43
43450;BME280;29041;42.266;23.110;2022-09-23T00:21:49;96046.94;;;8.61;66.56
43450;BME280;29041;42.266;23.110;2022-09-23T00:24:36;96039.50;;;8.58;66.04
43450;BME280;29041;42.266;23.110;2022-09-23T00:27:24;96042.34;;;8.25;67.12
43450;BME280;29041;42.266;23.110;2022-09-23T00:30:13;96034.66;;;8.46;67.11
43450;BME280;29041;42.266;23.110;2022-09-23T00:33:00;96038.34;;;8.36;66.79
43450;BME280;29041;42.266;23.110;2022-09-23T00:35:47;96032.56;;;8.57;66.61
43450;BME280;29041;42.266;23.110;2022-09-23T00:38:34;96026.59;;;9.19;63.83
43450;BME280;29041;42.266;23.110;2022-09-23T00:41:21;96038.16;;;8.47;66.36
43450;BME280;29041;42.266;23.110;2022-09-23T00:44:41;96034.19;;;8.30;67.25
43450;BME280;29041;42.266;23.110;2022-09-23T00:47:34;96032.88;;;9.15;64.31
43450;BME280;29041;42.266;23.110;2022-09-23T00:50:26;96028.72;;;8.63;66.08
43450;BME280;29041;42.266;23.110;2022-09-23T00:53:17;96033.94;;;8.04;67.85
43450;BME280;29041;42.266;23.110;2022-09-23T00:56:09;96038.78;;;8.16;67.33
43450;BME280;29041;42.266;23.110;2022-09-23T00:58:57;96032.03;;;8.04;67.36
43450;BME280;29041;42.266;23.110;2022-09-23T01:01:45;96039.56;;;7.60;68.43
43450;BME280;29041;42.266;23.110;2022-09-23T01:04:37;96031.94;;;7.54;69.30
43450;BME280;29041;42.266;23.110;2022-09-23T01:07:24;96034.09;;;7.38;69.46
43450;BME280;29041;42.266;23.110;2022-09-23T01:10:13;96034.81;;;8.13;67.12
43450;BME280;29041;42.266;23.110;2022-09-23T01:13:09;96033.84;;;7.95;67.29
43450;BME280;29041;42.266;23.110;2022-09-23T01:16:04;96029.59;;;7.94;65.43
43450;BME280;29041;42.266;23.110;2022-09-23T01:18:57;96029.19;;;8.65;65.34
43450;BME280;29041;42.266;23.110;2022-09-23T01:21:51;96013.75;;;7.56;68.39
43450;BME280;29041;42.266;23.110;2022-09-23T01:24:50;96029.53;;;7.24;70.11
43450;BME280;29041;42.266;23.110;2022-09-23T01:28:05;96030.09;;;7.07;70.55
43450;BME280;29041;42.266;23.110;2022-09-23T01:31:03;96032.47;;;7.23;70.71
43450;BME280;29041;42.266;23.110;2022-09-23T01:33:55;96034.06;;;7.24;70.13
43450;BME280;29041;42.266;23.110;2022-09-23T01:36:46;96036.53;;;6.87;71.47
43450;BME280;29041;42.266;23.110;2022-09-23T01:39:40;96035.63;;;7.11;71.65
43450;BME280;29041;42.266;23.110;2022-09-23T01:42:36;96024.97;;;7.25;70.74
43450;BME280;29041;42.266;23.110;2022-09-23T01:45:30;96027.03;;;7.14;70.92
43450;BME280;29041;42.266;23.110;2022-09-23T01:48:25;96031.19;;;6.87;71.93
43450;BME280;29041;42.266;23.110;2022-09-23T01:51:18;96034.19;;;6.99;71.26
43450;BME280;29041;42.266;23.110;2022-09-23T01:54:08;96037.47;;;7.43;70.12
43450;BME280;29041;42.266;23.110;2022-09-23T01:56:59;96042.94;;;7.05;71.33
43450;BME280;29041;42.266;23.110;2022-09-23T01:59:54;96041.06;;;6.87;71.65
43450;BME280;29041;42.266;23.110;2022-09-23T02:02:46;96043.13;;;7.09;71.44
43450;BME280;29041;42.266;23.110;2022-09-23T02:05:39;96050.06;;;7.10;70.93
43450;BME280;29041;42.266;23.110;2022-09-23T02:08:28;96057.25;;;6.76;71.73
43450;BME280;29041;42.266;23.110;2022-09-23T02:11:17;96061.06;;;6.32;73.50
43450;BME280;29041;42.266;23.110;2022-09-23T02:14:09;96064.72;;;6.93;71.61
43450;BME280;29041;42.266;23.110;2022-09-23T02:17:02;96046.09;;;7.07;70.74
43450;BME280;29041;42.266;23.110;2022-09-23T02:19:58;96058.31;;;6.94;71.04
43450;BME280;29041;42.266;23.110;2022-09-23T02:22:53;96062.69;;;7.04;70.97
43450;BME280;29041;42.266;23.110;2022-09-23T02:25:51;96066.13;;;7.05;70.99
43450;BME280;29041;42.266;23.110;2022-09-23T02:28:48;96062.72;;;6.85;72.14
43450;BME280;29041;42.266;23.110;2022-09-23T02:31:39;96055.38;;;6.58;72.84
43450;BME280;29041;42.266;23.110;2022-09-23T02:34:37;96069.19;;;6.98;71.47
43450;BME280;29041;42.266;23.110;2022-09-23T02:37:30;96064.97;;;6.78;72.44
43450;BME280;29041;42.266;23.110;2022-09-23T02:40:30;96062.59;;;7.09;71.82
43450;BME280;29041;42.266;23.110;2022-09-23T02:43:20;96063.44;;;6.72;72.45
43450;BME280;29041;42.266;23.110;2022-09-23T02:46:12;96065.44;;;6.99;70.93
43450;BME280;29041;42.266;23.110;2022-09-23T02:49:04;96061.34;;;6.69;72.27
43450;BME280;29041;42.266;23.110;2022-09-23T02:51:56;96063.16;;;6.73;71.78
43450;BME280;29041;42.266;23.110;2022-09-23T02:54:45;96073.28;;;6.33;73.16
43450;BME280;29041;42.266;23.110;2022-09-23T02:57:34;96071.25;;;6.06;73.32
43450;BME280;29041;42.266;23.110;2022-09-23T03:00:21;96071.78;;;6.27;73.00
43450;BME280;29041;42.266;23.110;2022-09-23T03:03:21;96073.91;;;6.49;72.03
43450;BME280;29041;42.266;23.110;2022-09-23T03:06:21;96075.28;;;6.65;70.59
43450;BME280;29041;42.266;23.110;2022-09-23T03:09:14;96074.16;;;6.28;72.12
43450;BME280;29041;42.266;23.110;2022-09-23T03:12:11;96073.53;;;6.37;71.76
43450;BME280;29041;42.266;23.110;2022-09-23T03:15:10;96070.38;;;6.10;73.01
43450;BME280;29041;42.266;23.110;2022-09-23T03:18:08;96072.34;;;6.24;72.64
43450;BME280;29041;42.266;23.110;2022-09-23T03:21:01;96075.94;;;6.14;73.02
43450;BME280;29041;42.266;23.110;2022-09-23T03:23:51;96071.28;;;6.25;72.80
43450;BME280;29041;42.266;23.110;2022-09-23T03:26:43;96073.28;;;6.14;73.23
43450;BME280;29041;42.266;23.110;2022-09-23T03:29:31;96069.06;;;6.08;73.38
43450;BME280;29041;42.266;23.110;2022-09-23T03:32:25;96068.81;;;6.09;73.08
43450;BME280;29041;42.266;23.110;2022-09-23T03:35:13;96069.72;;;6.18;73.52
43450;BME280;29041;42.266;23.110;2022-09-23T03:38:06;96076.97;;;6.37;72.48
43450;BME280;29041;42.266;23.110;2022-09-23T03:41:03;96077.13;;;6.02;73.73
43450;BME280;29041;42.266;23.110;2022-09-23T03:43:52;96073.44;;;6.23;73.00
43450;BME280;29041;42.266;23.110;2022-09-23T03:46:42;96081.88;;;6.30;73.15
43450;BME280;29041;42.266;23.110;2022-09-23T03:49:36;96074.63;;;6.74;71.42
43450;BME280;29041;42.266;23.110;2022-09-23T03:52:25;96074.78;;;7.49;68.47
43450;BME280;29041;42.266;23.110;2022-09-23T03:55:12;96084.69;;;7.15;67.87
43450;BME280;29041;42.266;23.110;2022-09-23T03:58:01;96083.63;;;7.63;67.76
43450;BME280;29041;42.266;23.110;2022-09-23T04:00:49;96090.78;;;7.02;70.08
43450;BME280;29041;42.266;23.110;2022-09-23T04:03:39;96079.44;;;7.10;68.87
43450;BME280;29041;42.266;23.110;2022-09-23T04:06:28;96078.81;;;6.61;71.14
43450;BME280;29041;42.266;23.110;2022-09-23T04:09:15;96077.03;;;6.13;73.13
43450;BME280;29041;42.266;23.110;2022-09-23T04:12:03;96079.69;;;6.13;73.64
43450;BME280;29041;42.266;23.110;2022-09-23T04:14:50;96083.56;;;6.21;74.03
43450;BME280;29041;42.266;23.110;2022-09-23T04:17:37;96079.84;;;6.22;73.92
43450;BME280;29041;42.266;23.110;2022-09-23T04:20:24;96077.44;;;5.96;74.64
43450;BME280;29041;42.266;23.110;2022-09-23T04:23:15;96076.94;;;6.18;74.23
43450;BME280;29041;42.266;23.110;2022-09-23T04:26:03;96079.03;;;5.97;74.75
43450;BME280;29041;42.266;23.110;2022-09-23T04:28:50;96084.06;;;6.03;74.11
43450;BME280;29041;42.266;23.110;2022-09-23T04:31:37;96081.72;;;6.21;73.84
43450;BME280;29041;42.266;23.110;2022-09-23T04:34:24;96080.63;;;6.22;72.94
43450;BME280;29041;42.266;23.110;2022-09-23T04:37:11;96079.00;;;6.02;73.20
43450;BME280;29041;42.266;23.110;2022-09-23T04:40:00;96088.47;;;6.13;73.16
43450;BME280;29041;42.266;23.110;2022-09-23T04:42:49;96087.47;;;6.09;73.06
43450;BME280;29041;42.266;23.110;2022-09-23T04:45:36;96095.31;;;6.19;72.06
43450;BME280;29041;42.266;23.110;2022-09-23T04:48:23;96085.50;;;6.15;72.78
43450;BME280;29041;42.266;23.110;2022-09-23T04:51:12;96081.06;;;6.29;72.08
43450;BME280;29041;42.266;23.110;2022-09-23T04:54:00;96098.59;;;6.11;72.36
43450;BME280;29041;42.266;23.110;2022-09-23T04:56:48;96100.28;;;6.50;71.73
43450;BME280;29041;42.266;23.110;2022-09-23T04:59:35;96108.94;;;6.18;72.39
43450;BME280;29041;42.266;23.110;2022-09-23T05:02:23;96100.78;;;6.09;72.48
43450;BME280;29041;42.266;23.110;2022-09-23T05:05:10;96104.97;;;6.15;72.45
43450;BME280;29041;42.266;23.110;2022-09-23T05:07:58;96109.38;;;6.25;72.45
43450;BME280;29041;42.266;23.110;2022-09-23T05:10:45;96110.94;;;7.27;69.25
43450;BME280;29041;42.266;23.110;2022-09-23T05:13:34;96114.28;;;6.61;70.84
43450;BME280;29041;42.266;23.110;2022-09-23T05:16:22;96112.84;;;6.69;71.46
43450;BME280;29041;42.266;23.110;2022-09-23T05:19:09;96113.97;;;6.63;71.52
43450;BME280;29041;42.266;23.110;2022-09-23T05:21:58;96111.88;;;7.50;68.46
43450;BME280;29041;42.266;23.110;2022-09-23T05:24:46;96114.22;;;7.38;69.32
43450;BME280;29041;42.266;23.110;2022-09-23T05:27:33;96104.44;;;7.14;69.30
43450;BME280;29041;42.266;23.110;2022-09-23T05:30:22;96104.72;;;7.78;68.15
43450;BME280;29041;42.266;23.110;2022-09-23T05:33:09;96115.84;;;8.55;65.57
43450;BME280;29041;42.266;23.110;2022-09-23T05:35:57;96108.91;;;8.26;66.83
43450;BME280;29041;42.266;23.110;2022-09-23T05:38:44;96114.16;;;8.32;66.52
43450;BME280;29041;42.266;23.110;2022-09-23T05:41:31;96104.06;;;8.15;67.10
43450;BME280;29041;42.266;23.110;2022-09-23T05:44:18;96119.59;;;8.26;67.85
43450;BME280;29041;42.266;23.110;2022-09-23T05:47:07;96115.91;;;8.78;67.00
43450;BME280;29041;42.266;23.110;2022-09-23T05:49:54;96122.22;;;9.19;65.48
43450;BME280;29041;42.266;23.110;2022-09-23T05:52:41;96120.81;;;8.48;67.25
43450;BME280;29041;42.266;23.110;2022-09-23T05:55:28;96120.50;;;8.22;68.20
43450;BME280;29041;42.266;23.110;2022-09-23T05:58:15;96125.25;;;8.53;68.49
43450;BME280;29041;42.266;23.110;2022-09-23T06:01:08;96129.53;;;9.50;65.80
43450;BME280;29041;42.266;23.110;2022-09-23T06:03:57;96127.91;;;9.17;67.55
43450;BME280;29041;42.266;23.110;2022-09-23T06:06:44;96128.50;;;9.91;64.90
43450;BME280;29041;42.266;23.110;2022-09-23T06:09:31;96126.31;;;11.44;60.34
43450;BME280;29041;42.266;23.110;2022-09-23T06:12:18;96115.41;;;12.44;56.95
43450;BME280;29041;42.266;23.110;2022-09-23T06:15:06;96125.84;;;11.07;60.91
43450;BME280;29041;42.266;23.110;2022-09-23T06:17:53;96131.06;;;11.12;60.28
43450;BME280;29041;42.266;23.110;2022-09-23T06:20:42;96130.53;;;10.26;62.15
43450;BME280;29041;42.266;23.110;2022-09-23T06:23:29;96125.88;;;10.40;62.92
43450;BME280;29041;42.266;23.110;2022-09-23T06:26:16;96123.25;;;10.58;62.71
43450;BME280;29041;42.266;23.110;2022-09-23T06:29:07;96126.31;;;10.91;61.95
43450;BME280;29041;42.266;23.110;2022-09-23T06:31:56;96117.72;;;10.63;64.04
43450;BME280;29041;42.266;23.110;2022-09-23T06:34:44;96127.28;;;11.31;62.10
43450;BME280;29041;42.266;23.110;2022-09-23T06:37:32;96105.63;;;11.92;61.14
43450;BME280;29041;42.266;23.110;2022-09-23T06:40:20;96119.06;;;11.01;65.70
43450;BME280;29041;42.266;23.110;2022-09-23T06:43:07;96119.50;;;11.29;65.93
43450;BME280;29041;42.266;23.110;2022-09-23T06:45:55;96123.16;;;12.07;65.24
43450;BME280;29041;42.266;23.110;2022-09-23T06:48:43;96103.72;;;12.40;62.33
43450;BME280;29041;42.266;23.110;2022-09-23T06:51:30;96113.47;;;13.05;59.51
43450;BME280;29041;42.266;23.110;2022-09-23T06:54:19;96126.06;;;11.84;63.80
43450;BME280;29041;42.266;23.110;2022-09-23T06:57:06;96120.44;;;15.91;54.06
43450;BME280;29041;42.266;23.110;2022-09-23T06:59:54;96101.09;;;21.52;38.18
43450;BME280;29041;42.266;23.110;2022-09-23T07:02:43;96094.22;;;22.24;34.98
43450;BME280;29041;42.266;23.110;2022-09-23T07:05:30;96094.59;;;21.97;34.51
43450;BME280;29041;42.266;23.110;2022-09-23T07:08:17;96091.00;;;23.12;32.30
43450;BME280;29041;42.266;23.110;2022-09-23T07:11:06;96092.69;;;22.23;33.59
43450;BME280;29041;42.266;23.110;2022-09-23T07:13:57;96094.22;;;22.27;33.24
43450;BME280;29041;42.266;23.110;2022-09-23T07:16:47;96099.50;;;21.44;33.63
43450;BME280;29041;42.266;23.110;2022-09-23T07:19:35;96101.16;;;21.63;33.16
43450;BME280;29041;42.266;23.110;2022-09-23T07:22:22;96091.16;;;23.72;29.43
43450;BME280;29041;42.266;23.110;2022-09-23T07:25:10;96089.13;;;22.80;29.80
43450;BME280;29041;42.266;23.110;2022-09-23T07:27:59;96097.03;;;21.10;31.78
43450;BME280;29041;42.266;23.110;2022-09-23T07:30:46;96087.19;;;22.01;30.54
43450;BME280;29041;42.266;23.110;2022-09-23T07:33:34;96086.03;;;22.20;29.85
43450;BME280;29041;42.266;23.110;2022-09-23T07:36:21;96080.56;;;22.27;29.80
43450;BME280;29041;42.266;23.110;2022-09-23T07:39:10;96082.41;;;23.13;28.67
43450;BME280;29041;42.266;23.110;2022-09-23T07:41:57;96070.28;;;23.18;28.14
43450;BME280;29041;42.266;23.110;2022-09-23T07:44:46;96073.91;;;22.07;30.31
43450;BME280;29041;42.266;23.110;2022-09-23T07:47:33;96080.56;;;22.42;29.87
43450;BME280;29041;42.266;23.110;2022-09-23T07:50:20;96079.94;;;24.64;26.56
43450;BME280;29041;42.266;23.110;2022-09-23T07:53:07;96084.31;;;23.35;28.27
43450;BME280;29041;42.266;23.110;2022-09-23T07:55:55;96073.91;;;22.14;30.55
43450;BME280;29041;42.266;23.110;2022-09-23T07:58:42;96077.44;;;22.72;29.63
43450;BME280;29041;42.266;23.110;2022-09-23T08:01:32;96063.06;;;20.41;34.15
43450;BME280;29041;42.266;23.110;2022-09-23T08:04:22;96078.19;;;21.90;31.64
43450;BME280;29041;42.266;23.110;2022-09-23T08:07:11;96080.56;;;22.49;30.96
43450;BME280;29041;42.266;23.110;2022-09-23T08:09:59;96078.31;;;21.12;32.60
43450;BME280;29041;42.266;23.110;2022-09-23T08:12:47;96082.09;;;20.86;33.82
43450;BME280;29041;42.266;23.110;2022-09-23T08:15:34;96075.59;;;21.16;33.12
43450;BME280;29041;42.266;23.110;2022-09-23T08:18:23;96066.28;;;21.24;32.17
43450;BME280;29041;42.266;23.110;2022-09-23T08:21:10;96078.06;;;20.69;32.48
43450;BME280;29041;42.266;23.110;2022-09-23T08:23:58;96069.25;;;22.58;29.17
43450;BME280;29041;42.266;23.110;2022-09-23T08:26:46;96061.38;;;22.85;28.43
43450;BME280;29041;42.266;23.110;2022-09-23T08:29:33;96072.75;;;22.15;30.36
43450;BME280;29041;42.266;23.110;2022-09-23T08:32:20;96077.84;;;20.36;33.76
43450;BME280;29041;42.266;23.110;2022-09-23T08:35:09;96079.78;;;19.91;33.72
43450;BME280;29041;42.266;23.110;2022-09-23T08:37:56;96071.44;;;19.35;35.04
43450;BME280;29041;42.266;23.110;2022-09-23T08:40:45;96078.88;;;18.81;36.05
43450;BME280;29041;42.266;23.110;2022-09-23T08:43:35;96076.00;;;18.16;36.06
43450;BME280;29041;42.266;23.110;2022-09-23T08:46:27;96080.25;;;18.94;35.73
43450;BME280;29041;42.266;23.110;2022-09-23T08:49:22;96073.78;;;18.26;35.95
43450;BME280;29041;42.266;23.110;2022-09-23T08:52:18;96077.16;;;18.42;36.75
43450;BME280;29041;42.266;23.110;2022-09-23T08:55:09;96070.09;;;17.91;38.14
43450;BME280;29041;42.266;23.110;2022-09-23T08:58:05;96071.94;;;19.14;35.93
43450;BME280;29041;42.266;23.110;2022-09-23T09:01:00;96079.00;;;18.61;36.92
43450;BME280;29041;42.266;23.110;2022-09-23T09:03:53;96065.13;;;18.70;36.27
43450;BME280;29041;42.266;23.110;2022-09-23T09:06:44;96072.53;;;18.43;35.58
43450;BME280;29041;42.266;23.110;2022-09-23T09:09:37;96069.31;;;18.64;35.80
43450;BME280;29041;42.266;23.110;2022-09-23T09:12:32;96076.41;;;18.99;35.43
43450;BME280;29041;42.266;23.110;2022-09-23T09:15:21;96072.91;;;18.45;35.88
43450;BME280;29041;42.266;23.110;2022-09-23T09:18:16;96062.75;;;19.26;35.29
43450;BME280;29041;42.266;23.110;2022-09-23T09:21:10;96063.41;;;19.15;34.08
43450;BME280;29041;42.266;23.110;2022-09-23T09:23:58;96051.63;;;19.38;34.82
43450;BME280;29041;42.266;23.110;2022-09-23T09:26:48;96055.53;;;19.07;34.05
43450;BME280;29041;42.266;23.110;2022-09-23T09:29:39;96063.19;;;18.17;36.80
43450;BME280;29041;42.266;23.110;2022-09-23T09:32:35;96067.84;;;18.97;35.93
43450;BME280;29041;42.266;23.110;2022-09-23T09:35:36;96052.81;;;19.78;35.21
43450;BME280;29041;42.266;23.110;2022-09-23T09:38:25;96054.00;;;19.81;34.81
43450;BME280;29041;42.266;23.110;2022-09-23T09:41:14;96063.81;;;19.86;34.38
43450;BME280;29041;42.266;23.110;2022-09-23T09:44:16;96068.78;;;19.42;34.72
43450;BME280;29041;42.266;23.110;2022-09-23T09:47:15;96079.84;;;18.15;35.85
43450;BME280;29041;42.266;23.110;2022-09-23T09:50:09;96074.19;;;19.08;34.52
43450;BME280;29041;42.266;23.110;2022-09-23T09:53:13;96067.84;;;19.65;34.21
43450;BME280;29041;42.266;23.110;2022-09-23T09:56:02;96064.22;;;19.88;33.26
43450;BME280;29041;42.266;23.110;2022-09-23T09:58:53;96060.78;;;19.98;33.24
43450;BME280;29041;42.266;23.110;2022-09-23T10:01:42;96058.25;;;19.78;32.80
43450;BME280;29041;42.266;23.110;2022-09-23T10:04:33;96058.91;;;20.06;33.13
43450;BME280;29041;42.266;23.110;2022-09-23T10:07:24;96060.59;;;20.21;34.16
43450;BME280;29041;42.266;23.110;2022-09-23T10:10:17;96044.78;;;21.08;31.46
43450;BME280;29041;42.266;23.110;2022-09-23T10:13:13;96052.00;;;20.19;30.87
43450;BME280;29041;42.266;23.110;2022-09-23T10:16:01;96050.16;;;20.34;30.67
43450;BME280;29041;42.266;23.110;2022-09-23T10:18:50;96050.91;;;20.27;32.11
43450;BME280;29041;42.266;23.110;2022-09-23T10:21:40;96052.44;;;19.08;32.17
43450;BME280;29041;42.266;23.110;2022-09-23T10:24:29;96055.34;;;18.65;33.33
43450;BME280;29041;42.266;23.110;2022-09-23T10:27:28;96050.84;;;19.79;31.52
43450;BME280;29041;42.266;23.110;2022-09-23T10:30:21;96046.22;;;19.79;31.62
43450;BME280;29041;42.266;23.110;2022-09-23T10:33:25;96049.84;;;18.89;34.31
43450;BME280;29041;42.266;23.110;2022-09-23T10:36:15;96039.53;;;18.44;32.83
43450;BME280;29041;42.266;23.110;2022-09-23T10:39:04;96027.94;;;18.78;32.83
43450;BME280;29041;42.266;23.110;2022-09-23T10:42:16;96033.81;;;18.80;33.12
43450;BME280;29041;42.266;23.110;2022-09-23T10:45:26;96041.16;;;19.81;30.50
43450;BME280;29041;42.266;23.110;2022-09-23T10:48:39;96025.38;;;20.54;29.40
43450;BME280;29041;42.266;23.110;2022-09-23T10:51:35;96029.56;;;20.40;30.20
43450;BME280;29041;42.266;23.110;2022-09-23T10:54:34;96020.84;;;20.17;28.80
43450;BME280;29041;42.266;23.110;2022-09-23T10:57:34;96005.47;;;21.31;27.68
43450;BME280;29041;42.266;23.110;2022-09-23T11:00:36;95993.66;;;21.01;25.80
43450;BME280;29041;42.266;23.110;2022-09-23T11:04:04;95990.81;;;20.72;26.37
43450;BME280;29041;42.266;23.110;2022-09-23T11:07:17;95988.81;;;20.62;27.31
43450;BME280;29041;42.266;23.110;2022-09-23T11:10:12;95984.88;;;21.66;26.54
43450;BME280;29041;42.266;23.110;2022-09-23T11:13:09;95970.84;;;21.96;26.64
43450;BME280;29041;42.266;23.110;2022-09-23T11:16:05;95983.94;;;21.11;28.18
43450;BME280;29041;42.266;23.110;2022-09-23T11:19:10;95975.31;;;20.87;28.32
43450;BME280;29041;42.266;23.110;2022-09-23T11:22:13;95963.34;;;20.36;29.20
43450;BME280;29041;42.266;23.110;2022-09-23T11:25:28;95983.38;;;19.58;30.25
43450;BME280;29041;42.266;23.110;2022-09-23T11:28:47;95971.28;;;19.59;29.98
43450;BME280;29041;42.266;23.110;2022-09-23T11:31:49;95968.25;;;20.12;27.86
43450;BME280;29041;42.266;23.110;2022-09-23T11:35:01;95967.41;;;20.71;26.78
43450;BME280;29041;42.266;23.110;2022-09-23T11:37:51;95964.53;;;20.42;27.72
43450;BME280;29041;42.266;23.110;2022-09-23T11:40:43;95952.00;;;21.19;26.79
43450;BME280;29041;42.266;23.110;2022-09-23T11:43:35;95958.03;;;20.65;27.33
43450;BME280;29041;42.266;23.110;2022-09-23T11:46:30;95976.50;;;20.23;28.77
43450;BME280;29041;42.266;23.110;2022-09-23T11:49:24;95975.66;;;20.12;28.99
43450;BME280;29041;42.266;23.110;2022-09-23T11:52:17;95968.25;;;19.23;30.30
43450;BME280;29041;42.266;23.110;2022-09-23T11:55:14;95958.50;;;18.27;30.47
43450;BME280;29041;42.266;23.110;2022-09-23T11:58:08;95961.63;;;19.24;29.83
43450;BME280;29041;42.266;23.110;2022-09-23T12:01:01;95962.78;;;19.23;28.23
43450;BME280;29041;42.266;23.110;2022-09-23T12:03:57;95961.03;;;19.41;28.34
43450;BME280;29041;42.266;23.110;2022-09-23T12:06:53;95948.91;;;19.80;27.25
43450;BME280;29041;42.266;23.110;2022-09-23T12:09:56;95935.97;;;20.96;26.27
43450;BME280;29041;42.266;23.110;2022-09-23T12:12:59;95938.69;;;20.92;26.48
43450;BME280;29041;42.266;23.110;2022-09-23T12:16:06;95930.16;;;21.22;27.24
43450;BME280;29041;42.266;23.110;2022-09-23T12:19:04;95942.44;;;20.62;26.88
43450;BME280;29041;42.266;23.110;2022-09-23T12:22:11;95939.00;;;20.80;26.53
43450;BME280;29041;42.266;23.110;2022-09-23T12:25:19;95942.53;;;20.10;27.21
43450;BME280;29041;42.266;23.110;2022-09-23T12:28:15;95917.56;;;20.04;26.68
43450;BME280;29041;42.266;23.110;2022-09-23T12:31:09;95907.97;;;20.21;25.79
43450;BME280;29041;42.266;23.110;2022-09-23T12:33:59;95933.69;;;20.24;27.17
43450;BME280;29041;42.266;23.110;2022-09-23T12:36:47;95923.34;;;19.92;28.08
43450;BME280;29041;42.266;23.110;2022-09-23T12:39:36;95930.44;;;19.59;28.47
43450;BME280;29041;42.266;23.110;2022-09-23T12:42:24;95924.44;;;19.84;28.08
43450;BME280;29041;42.266;23.110;2022-09-23T12:48:44;95929.28;;;20.86;25.98
43450;BME280;29041;42.266;23.110;2022-09-23T12:51:32;95912.28;;;20.33;26.98
43450;BME280;29041;42.266;23.110;2022-09-23T12:54:22;95932.59;;;19.35;27.78
43450;BME280;29041;42.266;23.110;2022-09-23T12:57:10;95923.03;;;20.04;27.33
43450;BME280;29041;42.266;23.110;2022-09-23T13:00:13;95924.75;;;20.34;25.85
43450;BME280;29041;42.266;23.110;2022-09-23T13:03:00;95933.84;;;19.45;26.82
43450;BME280;29041;42.266;23.110;2022-09-23T13:06:10;95927.63;;;19.93;26.75
43450;BME280;29041;42.266;23.110;2022-09-23T13:09:22;95924.44;;;19.35;27.04
43450;BME280;29041;42.266;23.110;2022-09-23T13:12:16;95930.41;;;19.55;28.31
43450;BME280;29041;42.266;23.110;2022-09-23T13:15:04;95923.63;;;20.42;26.93
43450;BME280;29041;42.266;23.110;2022-09-23T13:18:21;95930.78;;;19.99;26.79
43450;BME280;29041;42.266;23.110;2022-09-23T13:24:45;95923.31;;;20.51;26.21
43450;BME280;29041;42.266;23.110;2022-09-23T13:27:34;95929.44;;;19.78;26.70
43450;BME280;29041;42.266;23.110;2022-09-23T13:30:23;95926.16;;;19.54;26.96
43450;BME280;29041;42.266;23.110;2022-09-23T13:33:13;95918.94;;;19.28;26.43
43450;BME280;29041;42.266;23.110;2022-09-23T13:36:02;95927.59;;;19.44;26.58
43450;BME280;29041;42.266;23.110;2022-09-23T13:39:13;95920.69;;;20.03;27.12
43450;BME280;29041;42.266;23.110;2022-09-23T13:42:03;95922.69;;;19.61;27.13
43450;BME280;29041;42.266;23.110;2022-09-23T13:44:50;95916.56;;;19.26;28.16
43450;BME280;29041;42.266;23.110;2022-09-23T13:47:41;95924.44;;;19.35;28.49
43450;BME280;29041;42.266;23.110;2022-09-23T13:50:29;95927.00;;;20.14;27.37
43450;BME280;29041;42.266;23.110;2022-09-23T13:53:21;95919.81;;;19.88;27.60
43450;BME280;29041;42.266;23.110;2022-09-23T13:56:12;95917.03;;;19.80;27.12
43450;BME280;29041;42.266;23.110;2022-09-23T13:59:17;95906.44;;;19.72;26.69
43450;BME280;29041;42.266;23.110;2022-09-23T14:02:10;95901.72;;;20.21;26.28
43450;BME280;29041;42.266;23.110;2022-09-23T14:04:58;95899.47;;;19.78;26.08
43450;BME280;29041;42.266;23.110;2022-09-23T14:07:58;95894.69;;;20.16;25.86
43450;BME280;29041;42.266;23.110;2022-09-23T14:10:45;95893.66;;;19.79;27.17
43450;BME280;29041;42.266;23.110;2022-09-23T14:13:39;95887.81;;;19.29;27.80
43450;BME280;29041;42.266;23.110;2022-09-23T14:16:28;95881.78;;;19.50;26.97
43450;BME280;29041;42.266;23.110;2022-09-23T14:19:17;95895.38;;;18.71;28.29
43450;BME280;29041;42.266;23.110;2022-09-23T14:22:04;95886.56;;;19.19;27.42
43450;BME280;29041;42.266;23.110;2022-09-23T14:24:53;95893.25;;;19.29;28.08
43450;BME280;29041;42.266;23.110;2022-09-23T14:27:42;95889.09;;;19.94;28.03
43450;BME280;29041;42.266;23.110;2022-09-23T14:30:29;95885.03;;;18.84;29.10
43450;BME280;29041;42.266;23.110;2022-09-23T14:33:24;95891.31;;;19.29;28.38
43450;BME280;29041;42.266;23.110;2022-09-23T14:36:13;95882.66;;;19.16;28.66
43450;BME280;29041;42.266;23.110;2022-09-23T14:39:15;95891.75;;;18.94;28.41
43450;BME280;29041;42.266;23.110;2022-09-23T14:42:06;95881.50;;;19.17;28.64
43450;BME280;29041;42.266;23.110;2022-09-23T14:44:53;95874.72;;;18.66;30.31
43450;BME280;29041;42.266;23.110;2022-09-23T14:47:44;95874.53;;;19.20;27.98
43450;BME280;29041;42.266;23.110;2022-09-23T14:50:34;95887.94;;;18.98;28.22
43450;BME280;29041;42.266;23.110;2022-09-23T14:53:37;95883.63;;;19.91;26.38
43450;BME280;29041;42.266;23.110;2022-09-23T14:56:25;95885.44;;;19.24;28.46
43450;BME280;29041;42.266;23.110;2022-09-23T14:59:23;95880.00;;;19.24;27.52
43450;BME280;29041;42.266;23.110;2022-09-23T15:02:30;95888.41;;;19.53;28.34
43450;BME280;29041;42.266;23.110;2022-09-23T15:05:19;95888.47;;;18.43;29.07
43450;BME280;29041;42.266;23.110;2022-09-23T15:08:10;95883.56;;;19.31;27.79
43450;BME280;29041;42.266;23.110;2022-09-23T15:11:01;95889.91;;;18.67;26.36
43450;BME280;29041;42.266;23.110;2022-09-23T15:13:31;95880.13;;;19.38;25.73